Holbrook, AZ

8:02 PM MST on October 25, 2014 (GMT -0700)
Window Rock | Change Station
CLOSE
Current Station
Airport
Location: Window Rock,
Elevation: 6742 ft
Nearby Weather Stations

Elev 6742 ft 35.66 °N, 109.06 °W | Updated 9 minutes ago

Clear
Clear
54 °F
Feels Like 54 °F
N
0
Wind Variable Wind from North

Today
High -- | Low -- °F
--% Chance of Precip.
Yesterday
High -- | Low -- °F
Precip. -- in
6:35 AM 5:33 PM
Waxing Crescent, 5% visible
Pressure 30.10 in
Visibility 10.0 miles
Clouds Clear
Dew Point 35 °F
Humidity 49%
Rainfall 0.00 in
Snow Depth Not available.
UV 0 out of 12
Pollen 4.50 out of 12
Air Quality Not available.
Flu Activity No Activity
METAR KRQE 260253Z AUTO 00000KT 10SM CLR 12/02 A3027 RMK AO2 SLP193 T01220017 53000 TSNO

More Conditions Fewer Conditions

Pressure 30.10 in
Visibility 10.0 miles
Clouds Clear
Dew Point 35 °F
Humidity 49%
Rainfall 0.00 in
Snow Depth Not available.
UV 0 out of 12
Pollen 4.50 out of 12
Air Quality Not available.
Flu Activity No Activity
METAR KRQE 260253Z AUTO 00000KT 10SM CLR 12/02 A3027 RMK AO2 SLP193 T01220017 53000 TSNO

More Conditions Fewer Conditions

10-Day Weather Forecast

Almanac

Astronomy

Oct. 25, 2014 Rise Set
Actual Time 6:35 AM MST 5:33 PM MST
Civil Twilight 6:09 AM MST 5:59 PM MST
Nautical Twilight 5:39 AM MST 6:29 PM MST
Astronomical Twilight 5:10 AM MST 6:58 PM MST
Moon 8:14 AM MST (10/25) 7:02 PM MST (10/25)
Length of Visible Light 11h 50m
Length of Day
10h 58m
Tomorrow will be 2m 0s shorter.
Waxing Crescent, 5% of the Moon is Illuminated
Today
Waxing Crescent
Oct 30
First Quarter
Nov 6
Full
Nov 14
Last Quarter
Nov 22
New

Today's Extremes

State Highs State Lows

Community

WunderPhotos

Upload Photos

1,765,091 photos uploaded!

Nearby

Snow Depth

Station Depth Elevation
Promontory 0 in 7930 ft
Baldy 1 in 9125 ft
Mormon Mountain 0 in 7500 ft
Baker Butte 0 in 7300 ft
Maverick Fork 0 in 9200 ft

Earthquake Activity

City Distance Mag. Time & Date
No recent earthquake activity has been reported nearby.
Minimum magnitude displayed is 2.5.

Coastal Water Temperatures

Place Temperature
No Stations Reporting

Nearby Weather Stations